createdAt,value
2018-05-07T00:00:22.727Z,64.10
2018-05-07T00:02:51.081Z,64.20
2018-05-07T00:05:18.612Z,64.20
2018-05-07T00:07:46.161Z,64.70
2018-05-07T00:10:13.680Z,64.50
2018-05-07T00:12:41.995Z,64.40
2018-05-07T00:15:09.520Z,64.30
2018-05-07T00:17:37.829Z,64.30
2018-05-07T00:20:06.371Z,64.30
2018-05-07T00:22:34.687Z,64.40
2018-05-07T00:25:02.224Z,64.30
2018-05-07T00:27:29.768Z,64.20
2018-05-07T00:29:58.113Z,63.80
2018-05-07T00:32:26.388Z,63.40
2018-05-07T00:34:53.962Z,63.40
2018-05-07T00:37:21.527Z,63.00
2018-05-07T00:39:49.000Z,62.90
2018-05-07T00:42:17.295Z,62.40
2018-05-07T00:44:44.848Z,62.40
2018-05-07T00:47:12.383Z,62.30
2018-05-07T00:49:39.918Z,62.10
2018-05-07T00:52:07.458Z,62.20
2018-05-07T00:54:47.005Z,62.10
2018-05-07T00:57:14.545Z,62.20
2018-05-07T00:59:42.109Z,62.20
2018-05-07T01:02:09.642Z,62.10
2018-05-07T01:04:37.186Z,62.10
2018-05-07T01:07:05.499Z,61.90
2018-05-07T01:09:33.050Z,61.90
2018-05-07T01:12:00.591Z,61.60
2018-05-07T01:14:28.107Z,61.50
2018-05-07T01:16:55.667Z,61.60
2018-05-07T01:19:23.232Z,61.70
2018-05-07T01:21:50.782Z,61.80
2018-05-07T01:24:18.302Z,61.90
2018-05-07T01:26:45.847Z,62.00
2018-05-07T01:29:13.373Z,62.00
2018-05-07T01:31:40.929Z,61.80
2018-05-07T01:34:08.447Z,61.90
2018-05-07T01:36:35.985Z,62.20
2018-05-07T01:39:03.572Z,62.20
2018-05-07T01:41:31.135Z,62.10
2018-05-07T01:43:58.667Z,62.20
2018-05-07T01:46:26.973Z,62.00
2018-05-07T01:48:54.506Z,61.90
2018-05-07T01:51:22.060Z,62.10
2018-05-07T01:53:49.589Z,62.10
2018-05-07T01:56:17.931Z,61.90
2018-05-07T01:58:45.469Z,61.80
2018-05-07T02:01:13.017Z,62.00
2018-05-07T02:03:40.555Z,62.00
2018-05-07T02:06:08.091Z,62.00
2018-05-07T02:08:35.668Z,62.10
2018-05-07T02:11:03.195Z,62.70
2018-05-07T02:13:30.737Z,63.00
2018-05-07T02:15:58.265Z,63.20
2018-05-07T02:18:25.796Z,63.90
2018-05-07T02:20:53.338Z,64.30
2018-05-07T02:23:20.872Z,65.50
2018-05-07T02:25:48.405Z,65.90
2018-05-07T02:28:15.942Z,66.20
2018-05-07T02:30:43.472Z,66.40
2018-05-07T02:33:11.777Z,66.10
2018-05-07T02:35:39.355Z,66.10
2018-05-07T02:38:06.912Z,66.70
2018-05-07T02:40:35.219Z,67.70
2018-05-07T02:43:02.751Z,67.60
2018-05-07T02:45:30.281Z,67.70
2018-05-07T02:47:57.837Z,67.80
2018-05-07T02:50:26.142Z,68.70
2018-05-07T02:52:53.731Z,68.60
2018-05-07T02:55:21.260Z,69.70
2018-05-07T02:57:49.748Z,70.20
2018-05-07T03:00:17.341Z,71.20
2018-05-07T03:02:44.885Z,72.60
2018-05-07T03:05:12.440Z,73.30
2018-05-07T03:07:40.005Z,73.80
2018-05-07T03:10:07.530Z,74.50
2018-05-07T03:12:35.049Z,74.40
2018-05-07T03:15:02.577Z,74.50
2018-05-07T03:17:30.185Z,74.60
2018-05-07T03:19:57.669Z,74.90
2018-05-07T03:22:25.216Z,75.20
2018-05-07T03:24:53.512Z,75.00
2018-05-07T03:27:21.050Z,75.00
2018-05-07T03:29:48.588Z,75.00
2018-05-07T03:32:16.116Z,75.80
2018-05-07T03:34:43.644Z,76.30
2018-05-07T03:37:11.185Z,76.80
2018-05-07T03:39:38.716Z,77.10
2018-05-07T03:42:06.238Z,75.30
2018-05-07T03:44:33.764Z,76.70
2018-05-07T03:47:01.304Z,77.80
2018-05-07T03:49:28.854Z,77.60
2018-05-07T03:51:56.429Z,77.60
2018-05-07T03:54:24.012Z,78.00
2018-05-07T03:56:53.528Z,78.60
2018-05-07T03:59:21.054Z,78.20
2018-05-07T04:01:52.278Z,78.00
2018-05-07T04:04:19.816Z,77.70
2018-05-07T04:06:48.464Z,77.20
2018-05-07T04:09:15.985Z,76.40
2018-05-07T04:11:43.534Z,75.40
2018-05-07T04:14:11.860Z,72.20
2018-05-07T04:16:51.203Z,72.20
2018-05-07T04:19:30.760Z,71.60
2018-05-07T04:22:10.287Z,70.60
2018-05-07T04:24:38.623Z,69.80
2018-05-07T04:27:06.156Z,69.80
2018-05-07T04:29:34.465Z,69.50
2018-05-07T04:32:02.024Z,69.40
2018-05-07T04:34:29.594Z,69.20
2018-05-07T04:36:57.138Z,69.00
2018-05-07T04:39:24.704Z,68.90
2018-05-07T04:41:52.257Z,68.70
2018-05-07T04:44:19.775Z,68.40
2018-05-07T04:46:47.320Z,68.30
2018-05-07T04:49:14.860Z,68.00
2018-05-07T04:51:42.393Z,68.10
2018-05-07T04:54:09.919Z,68.50
2018-05-07T04:56:38.227Z,67.40
2018-05-07T04:59:05.812Z,67.30
2018-05-07T05:01:33.372Z,67.30
2018-05-07T05:04:00.933Z,67.10
2018-05-07T05:06:28.493Z,66.80
2018-05-07T05:08:56.801Z,66.80
2018-05-07T05:11:24.429Z,66.70
2018-05-07T05:13:51.984Z,66.50
2018-05-07T05:16:19.520Z,66.30
2018-05-07T05:18:47.066Z,66.50
2018-05-07T05:21:14.713Z,66.40
2018-05-07T05:23:42.151Z,66.10
2018-05-07T05:26:10.471Z,65.70
2018-05-07T05:28:38.016Z,65.50
2018-05-07T05:31:05.558Z,65.00
2018-05-07T05:33:33.103Z,64.00
2018-05-07T05:36:00.641Z,63.20
2018-05-07T05:38:28.185Z,60.60
2018-05-07T05:40:55.717Z,59.00
2018-05-07T05:43:23.393Z,57.50
2018-05-07T05:45:50.940Z,55.80
2018-05-07T05:48:18.500Z,54.30
2018-05-07T05:50:47.721Z,53.10
2018-05-07T05:53:15.352Z,52.20
2018-05-07T05:55:42.879Z,52.30
2018-05-07T05:58:10.415Z,52.60
2018-05-07T06:00:38.747Z,50.50
2018-05-07T06:03:06.302Z,50.40
2018-05-07T06:05:33.844Z,50.10
2018-05-07T06:08:01.426Z,50.50
2018-05-07T06:10:28.967Z,49.40
2018-05-07T06:12:56.540Z,49.40
2018-05-07T06:15:24.078Z,48.80
2018-05-07T06:17:51.602Z,50.10
2018-05-07T06:20:19.139Z,48.90
2018-05-07T06:22:51.548Z,47.60
2018-05-07T06:25:19.092Z,48.50
2018-05-07T06:27:46.625Z,47.70
2018-05-07T06:30:14.188Z,47.80
2018-05-07T06:32:41.850Z,46.80
2018-05-07T06:35:09.392Z,46.50
2018-05-07T06:37:36.991Z,45.10
2018-05-07T06:40:05.241Z,44.80
2018-05-07T06:42:32.777Z,44.80
2018-05-07T06:45:00.350Z,44.70
2018-05-07T06:47:27.899Z,43.60
2018-05-07T06:49:55.456Z,43.20
2018-05-07T06:52:23.021Z,42.40
2018-05-07T06:54:50.601Z,41.60
2018-05-07T06:57:18.143Z,41.30
2018-05-07T06:59:45.696Z,41.20
2018-05-07T07:02:31.019Z,41.30
2018-05-07T07:05:06.941Z,40.70
2018-05-07T07:07:34.534Z,40.60
2018-05-07T07:10:02.859Z,40.40
2018-05-07T07:12:30.383Z,40.50
2018-05-07T07:14:57.916Z,40.10
2018-05-07T07:17:25.454Z,39.30
2018-05-07T07:19:53.004Z,39.10
2018-05-07T07:22:20.558Z,39.10
2018-05-07T07:24:48.080Z,39.90
2018-05-07T07:27:15.609Z,38.60
2018-05-07T07:29:43.153Z,38.60
2018-05-07T07:32:10.692Z,37.20
2018-05-07T07:34:38.228Z,37.10
2018-05-07T07:37:06.681Z,38.40
2018-05-07T07:39:34.464Z,39.40
2018-05-07T07:42:01.967Z,39.40
2018-05-07T07:44:30.398Z,38.90
2018-05-07T07:46:58.024Z,38.10
2018-05-07T07:49:25.477Z,38.30
2018-05-07T07:51:53.059Z,38.20
2018-05-07T07:54:20.564Z,37.50
2018-05-07T07:56:49.003Z,38.00
2018-05-07T07:59:16.536Z,37.60
2018-05-07T08:01:44.155Z,35.40
2018-05-07T08:04:11.663Z,35.20
2018-05-07T08:06:39.197Z,34.50
2018-05-07T08:09:06.741Z,34.80
2018-05-07T08:11:34.321Z,35.30
2018-05-07T08:14:01.933Z,36.40
2018-05-07T08:16:29.468Z,36.80
2018-05-07T08:18:57.861Z,36.90
2018-05-07T08:21:25.396Z,36.90
2018-05-07T08:23:53.711Z,37.10
2018-05-07T08:26:21.319Z,37.10
2018-05-07T08:28:48.853Z,36.90
2018-05-07T08:31:16.425Z,37.80
2018-05-07T08:33:43.966Z,36.00
2018-05-07T08:36:11.531Z,37.30
2018-05-07T08:38:39.050Z,37.30
2018-05-07T08:41:06.597Z,36.60
2018-05-07T08:43:34.906Z,37.70
2018-05-07T08:46:02.431Z,37.70
2018-05-07T08:48:29.961Z,38.10
2018-05-07T08:50:57.529Z,37.10
2018-05-07T08:53:25.036Z,36.20
2018-05-07T08:55:52.575Z,37.30
2018-05-07T08:58:20.102Z,37.10
2018-05-07T09:00:47.644Z,37.50
2018-05-07T09:03:15.197Z,36.50
2018-05-07T09:05:42.732Z,37.20
2018-05-07T09:08:10.316Z,38.80
2018-05-07T09:10:37.810Z,38.50
2018-05-07T09:13:06.140Z,36.90
2018-05-07T09:15:33.666Z,36.90
2018-05-07T09:18:01.184Z,37.00
2018-05-07T09:20:29.487Z,35.30
2018-05-07T09:22:57.013Z,35.40
2018-05-07T09:25:24.552Z,36.00
2018-05-07T09:27:52.091Z,34.90
2018-05-07T09:30:19.630Z,33.50
2018-05-07T09:32:47.159Z,33.40
2018-05-07T09:35:15.483Z,35.20
2018-05-07T09:37:43.023Z,35.10
2018-05-07T09:40:10.545Z,33.60
2018-05-07T09:42:38.100Z,33.20
2018-05-07T09:45:05.634Z,31.40
2018-05-07T09:47:33.194Z,31.10
2018-05-07T09:50:00.724Z,30.80
2018-05-07T09:52:28.267Z,33.10
2018-05-07T09:54:55.800Z,32.80
2018-05-07T09:57:24.122Z,32.00
2018-05-07T09:59:51.653Z,32.00
2018-05-07T10:02:20.001Z,32.90
2018-05-07T10:04:47.540Z,33.50
2018-05-07T10:07:15.089Z,31.80
2018-05-07T10:09:42.635Z,30.50
2018-05-07T10:12:10.932Z,30.10
2018-05-07T10:14:38.463Z,30.10
2018-05-07T10:17:06.050Z,29.30
2018-05-07T10:19:33.582Z,28.80
2018-05-07T10:22:01.138Z,28.20
2018-05-07T10:24:28.668Z,28.30
2018-05-07T10:26:56.972Z,27.00
2018-05-07T10:29:24.500Z,26.90
2018-05-07T10:31:52.050Z,28.20
2018-05-07T10:34:19.576Z,28.10
2018-05-07T10:36:47.125Z,28.30
2018-05-07T10:39:14.664Z,26.70
2018-05-07T10:41:42.221Z,26.60
2018-05-07T10:44:09.745Z,25.40
2018-05-07T10:46:46.403Z,25.90
2018-05-07T10:49:14.001Z,25.90
2018-05-07T10:51:41.480Z,28.10
2018-05-07T10:54:18.787Z,28.90
2018-05-07T10:56:46.340Z,28.50
2018-05-07T10:59:13.873Z,28.60
2018-05-07T11:01:41.436Z,28.10
2018-05-07T11:04:09.736Z,28.10
2018-05-07T11:06:43.725Z,28.10
2018-05-07T11:09:11.253Z,28.00
2018-05-07T11:11:44.208Z,27.70
2018-05-07T11:14:11.755Z,27.90
2018-05-07T11:16:39.293Z,27.10
2018-05-07T11:19:06.838Z,27.60
2018-05-07T11:21:34.371Z,28.50
2018-05-07T11:24:02.027Z,29.00
2018-05-07T11:26:29.551Z,29.40
2018-05-07T11:28:57.339Z,29.40
2018-05-07T11:31:24.872Z,29.50
2018-05-07T11:33:58.634Z,29.00
2018-05-07T11:36:26.196Z,29.20
2018-05-07T11:38:53.720Z,28.00
2018-05-07T11:41:22.046Z,29.90
2018-05-07T11:43:49.576Z,29.40
2018-05-07T11:46:17.119Z,29.50
2018-05-07T11:48:45.407Z,30.50
2018-05-07T11:51:13.395Z,30.50
2018-05-07T11:53:40.952Z,28.40
2018-05-07T11:56:08.504Z,29.00
2018-05-07T11:58:36.100Z,28.50
2018-05-07T12:01:03.644Z,28.50
2018-05-07T12:03:31.176Z,28.90
2018-05-07T12:05:58.744Z,28.90
2018-05-07T12:08:26.267Z,28.90
2018-05-07T12:10:53.955Z,29.00
2018-05-07T12:13:21.480Z,28.90
2018-05-07T12:15:49.121Z,29.50
2018-05-07T12:18:16.596Z,29.50
2018-05-07T12:20:44.116Z,29.50
2018-05-07T12:23:11.701Z,29.30
2018-05-07T12:25:39.210Z,29.10
2018-05-07T12:28:06.769Z,29.50
2018-05-07T12:30:34.333Z,29.00
2018-05-07T12:33:01.902Z,29.00
2018-05-07T12:35:29.452Z,28.10
2018-05-07T12:37:57.020Z,28.50
2018-05-07T12:40:24.575Z,28.00
2018-05-07T12:42:52.139Z,28.20
2018-05-07T12:45:19.681Z,28.40
2018-05-07T12:47:47.216Z,27.80
2018-05-07T12:50:15.537Z,27.90
2018-05-07T12:52:43.144Z,27.90
2018-05-07T12:55:10.659Z,28.90
2018-05-07T12:57:39.117Z,28.80
2018-05-07T13:00:06.730Z,28.00
2018-05-07T13:02:34.276Z,28.80
2018-05-07T13:05:01.832Z,28.40
2018-05-07T13:07:29.373Z,28.50
2018-05-07T13:09:56.997Z,28.10
2018-05-07T13:12:24.470Z,27.80
2018-05-07T13:14:51.993Z,27.30
2018-05-07T13:17:19.525Z,27.30
2018-05-07T13:19:47.062Z,27.90
2018-05-07T13:22:14.607Z,27.90
2018-05-07T13:24:42.176Z,27.80
2018-05-07T13:27:09.721Z,27.20
2018-05-07T13:29:37.249Z,27.60
2018-05-07T13:32:05.610Z,28.50
2018-05-07T13:34:33.454Z,28.50
2018-05-07T13:37:00.999Z,28.90
2018-05-07T13:39:28.531Z,28.90
2018-05-07T13:41:56.125Z,28.50
2018-05-07T13:44:23.648Z,28.80
2018-05-07T13:46:51.184Z,29.30
2018-05-07T13:49:19.525Z,29.90
2018-05-07T13:51:47.873Z,29.60
2018-05-07T13:54:15.408Z,29.60
2018-05-07T13:56:42.971Z,29.50
2018-05-07T13:59:10.513Z,28.90
2018-05-07T14:01:38.058Z,28.60
2018-05-07T14:04:06.436Z,29.00
2018-05-07T14:06:34.755Z,29.50
2018-05-07T14:09:02.313Z,29.50
2018-05-07T14:11:29.901Z,29.70
2018-05-07T14:13:57.450Z,30.90
2018-05-07T14:16:24.985Z,30.80
2018-05-07T14:18:52.505Z,30.80
2018-05-07T14:21:20.049Z,29.80
2018-05-07T14:23:47.609Z,29.70
2018-05-07T14:26:15.233Z,30.00
2018-05-07T14:28:43.628Z,30.80
2018-05-07T14:31:11.165Z,30.80
2018-05-07T14:33:38.758Z,31.40
2018-05-07T14:36:06.302Z,31.40
2018-05-07T14:38:33.844Z,31.60
2018-05-07T14:41:01.400Z,32.20
2018-05-07T14:43:28.950Z,31.90
2018-05-07T14:45:56.483Z,31.30
2018-05-07T14:48:24.785Z,32.00
2018-05-07T14:50:52.314Z,32.00
2018-05-07T14:53:20.610Z,31.30
2018-05-07T14:55:48.183Z,31.20
2018-05-07T14:58:15.705Z,30.70
2018-05-07T15:00:44.028Z,30.40
2018-05-07T15:03:11.561Z,30.30
2018-05-07T15:05:39.119Z,30.50
2018-05-07T15:08:07.420Z,30.00
2018-05-07T15:10:34.951Z,30.00
2018-05-07T15:13:02.523Z,30.40
2018-05-07T15:15:30.187Z,31.30
2018-05-07T15:17:57.673Z,30.80
2018-05-07T15:20:25.287Z,31.10
2018-05-07T15:22:52.749Z,31.20
2018-05-07T15:25:20.290Z,31.10
2018-05-07T15:27:48.620Z,31.00
2018-05-07T15:30:16.179Z,31.00
2018-05-07T15:32:43.729Z,30.60
2018-05-07T15:35:11.267Z,31.70
2018-05-07T15:37:38.814Z,30.00
2018-05-07T15:40:06.412Z,31.00
2018-05-07T15:42:34.090Z,30.80
2018-05-07T15:45:01.626Z,30.80
2018-05-07T15:47:29.168Z,31.00
2018-05-07T15:49:56.746Z,31.10
2018-05-07T15:52:24.280Z,30.00
2018-05-07T15:54:51.809Z,30.50
2018-05-07T15:57:20.117Z,31.30
2018-05-07T15:59:47.641Z,31.30
2018-05-07T16:02:15.958Z,31.00
2018-05-07T16:04:43.511Z,31.00
2018-05-07T16:07:11.155Z,31.40
2018-05-07T16:09:38.681Z,31.50
2018-05-07T16:12:06.212Z,31.60
2018-05-07T16:14:33.749Z,32.30
2018-05-07T16:17:01.327Z,31.00
2018-05-07T16:19:28.834Z,30.90
2018-05-07T16:21:56.483Z,31.30
2018-05-07T16:24:23.911Z,31.10
2018-05-07T16:26:51.450Z,31.40
2018-05-07T16:29:19.030Z,31.30
2018-05-07T16:31:46.568Z,31.10
2018-05-07T16:34:14.101Z,32.10
2018-05-07T16:36:41.651Z,32.90
2018-05-07T16:39:10.006Z,31.70
2018-05-07T16:41:38.487Z,31.70
2018-05-07T16:44:06.008Z,31.90
2018-05-07T16:46:33.562Z,32.30
2018-05-07T16:49:01.104Z,32.30
2018-05-07T16:51:28.624Z,32.80
2018-05-07T16:53:56.159Z,33.00
2018-05-07T16:56:24.486Z,32.10
2018-05-07T16:58:52.044Z,32.20
2018-05-07T17:01:19.569Z,32.80
2018-05-07T17:03:47.097Z,33.00
2018-05-07T17:06:14.627Z,32.40
2018-05-07T17:08:42.165Z,32.70
2018-05-07T17:11:09.712Z,32.30
2018-05-07T17:13:37.239Z,32.30
2018-05-07T17:16:04.810Z,32.10
2018-05-07T17:18:33.113Z,32.70
2018-05-07T17:21:00.704Z,32.70
2018-05-07T17:23:28.244Z,32.30
2018-05-07T17:25:55.760Z,32.50
2018-05-07T17:28:23.297Z,32.40
2018-05-07T17:30:50.825Z,32.60
2018-05-07T17:33:18.403Z,32.90
2018-05-07T17:35:46.768Z,33.10
2018-05-07T17:38:14.957Z,33.10
2018-05-07T17:40:42.467Z,33.50
2018-05-07T17:43:10.005Z,33.20
2018-05-07T17:46:04.190Z,33.20
2018-05-07T17:48:44.471Z,33.90
2018-05-07T17:51:12.752Z,34.00
2018-05-07T17:53:41.104Z,34.00
2018-05-07T17:56:08.571Z,33.60
2018-05-07T17:58:36.103Z,33.80
2018-05-07T18:01:03.657Z,34.10
2018-05-07T18:03:31.261Z,33.90
2018-05-07T18:05:59.089Z,34.00
2018-05-07T18:08:26.624Z,34.50
2018-05-07T18:10:54.193Z,34.70
2018-05-07T18:13:21.676Z,34.60
2018-05-07T18:15:49.404Z,34.70
2018-05-07T18:18:16.990Z,34.70
2018-05-07T18:20:45.550Z,34.60
2018-05-07T18:23:14.358Z,34.00
2018-05-07T18:25:41.892Z,34.50
2018-05-07T18:28:09.433Z,34.50
2018-05-07T18:30:36.948Z,35.10
2018-05-07T18:33:04.493Z,35.70
2018-05-07T18:35:32.042Z,35.50
2018-05-07T18:37:59.647Z,35.80
2018-05-07T18:40:27.105Z,36.20
2018-05-07T18:42:54.646Z,36.60
2018-05-07T18:45:22.165Z,36.70
2018-05-07T18:47:49.719Z,37.20
2018-05-07T18:50:17.294Z,37.80
2018-05-07T18:52:45.027Z,37.80
2018-05-07T18:55:12.544Z,39.00
2018-05-07T18:57:40.081Z,38.70
2018-05-07T19:00:07.601Z,39.10
2018-05-07T19:02:35.912Z,40.60
2018-05-07T19:05:03.454Z,40.60
2018-05-07T19:07:30.986Z,40.90
2018-05-07T19:09:58.517Z,41.20
2018-05-07T19:12:26.045Z,41.40
2018-05-07T19:14:53.581Z,41.50
2018-05-07T19:17:21.107Z,42.20
2018-05-07T19:19:49.578Z,42.90
2018-05-07T19:22:17.039Z,42.90
2018-05-07T19:24:45.516Z,43.30
2018-05-07T19:27:13.434Z,44.60
2018-05-07T19:29:40.975Z,44.60
2018-05-07T19:32:10.360Z,46.00
2018-05-07T19:34:37.981Z,45.90
2018-05-07T19:37:06.284Z,46.70
2018-05-07T19:39:34.632Z,47.10
2018-05-07T19:42:02.209Z,47.10
2018-05-07T19:44:29.744Z,47.80
2018-05-07T19:46:57.280Z,47.40
2018-05-07T19:49:24.826Z,48.00
2018-05-07T19:51:52.366Z,48.30
2018-05-07T19:54:19.902Z,48.80
2018-05-07T19:56:48.253Z,49.50
2018-05-07T19:59:15.913Z,49.50
2018-05-07T20:01:44.153Z,50.00
2018-05-07T20:04:11.713Z,50.30
2018-05-07T20:06:39.253Z,50.40
2018-05-07T20:09:07.554Z,50.70
2018-05-07T20:11:35.076Z,50.60
2018-05-07T20:14:02.650Z,51.10
2018-05-07T20:16:30.167Z,51.40
2018-05-07T20:18:57.918Z,51.70
2018-05-07T20:21:26.204Z,52.20
2018-05-07T20:23:54.513Z,52.70
2018-05-07T20:26:22.249Z,52.70
2018-05-07T20:28:49.802Z,52.70
2018-05-07T20:31:17.637Z,53.30
2018-05-07T20:33:45.852Z,53.40
2018-05-07T20:36:15.093Z,53.70
2018-05-07T20:38:43.631Z,54.20
2018-05-07T20:41:11.190Z,54.20
2018-05-07T20:43:39.496Z,55.10
2018-05-07T20:46:07.031Z,55.10
2018-05-07T20:48:34.560Z,55.30
2018-05-07T20:51:02.886Z,55.50
2018-05-07T20:53:30.409Z,55.50
2018-05-07T20:55:57.928Z,55.90
2018-05-07T20:58:26.228Z,56.80
2018-05-07T21:00:53.758Z,56.80
2018-05-07T21:03:21.305Z,57.20
2018-05-07T21:05:49.617Z,57.80
2018-05-07T21:08:17.165Z,57.80
2018-05-07T21:10:45.541Z,58.10
2018-05-07T21:13:13.488Z,58.10
2018-05-07T21:15:41.763Z,58.90
2018-05-07T21:18:09.276Z,58.80
2018-05-07T21:20:36.807Z,59.10
2018-05-07T21:23:04.391Z,59.00
2018-05-07T21:25:31.925Z,59.60
2018-05-07T21:27:59.460Z,59.90
2018-05-07T21:30:27.003Z,60.50
2018-05-07T21:32:54.539Z,60.50
2018-05-07T21:35:22.072Z,60.90
2018-05-07T21:37:49.612Z,61.00
2018-05-07T21:40:17.184Z,61.60
2018-05-07T21:42:45.528Z,61.30
2018-05-07T21:45:13.312Z,62.20
2018-05-07T21:47:40.845Z,62.20
2018-05-07T21:50:08.375Z,63.20
2018-05-07T21:52:36.675Z,62.70
2018-05-07T21:55:04.979Z,63.10
2018-05-07T21:57:33.310Z,63.60
2018-05-07T22:00:00.841Z,63.50
2018-05-07T22:02:28.363Z,63.90
2018-05-07T22:04:55.910Z,64.20
2018-05-07T22:07:23.432Z,63.90
2018-05-07T22:09:50.959Z,64.10
2018-05-07T22:12:18.525Z,64.40
2018-05-07T22:14:46.320Z,64.70
2018-05-07T22:17:13.914Z,65.50
2018-05-07T22:19:41.435Z,65.10
2018-05-07T22:22:09.734Z,65.30
2018-05-07T22:24:38.024Z,65.50
2018-05-07T22:27:05.558Z,65.50
2018-05-07T22:29:33.105Z,66.10
2018-05-07T22:32:00.700Z,66.10
2018-05-07T22:34:28.203Z,66.00
2018-05-07T22:36:55.728Z,66.00
2018-05-07T22:39:23.269Z,66.00
2018-05-07T22:41:50.781Z,66.20
2018-05-07T22:44:18.359Z,66.90
2018-05-07T22:46:45.952Z,66.60
2018-05-07T22:49:14.174Z,66.70
2018-05-07T22:51:42.490Z,67.40
2018-05-07T22:54:10.033Z,67.20
2018-05-07T22:56:37.545Z,67.10
2018-05-07T22:59:05.076Z,68.10
2018-05-07T23:01:32.603Z,67.80
2018-05-07T23:04:00.141Z,67.70
2018-05-07T23:06:27.670Z,68.10
2018-05-07T23:08:55.201Z,68.00
2018-05-07T23:11:22.733Z,68.00
2018-05-07T23:13:50.276Z,68.20
2018-05-07T23:16:18.573Z,69.00
2018-05-07T23:18:46.188Z,69.00
2018-05-07T23:21:21.829Z,69.20
2018-05-07T23:23:49.389Z,69.50
2018-05-07T23:26:17.676Z,69.40
2018-05-07T23:28:45.228Z,69.30
2018-05-07T23:31:20.304Z,69.70
2018-05-07T23:33:47.852Z,69.50
2018-05-07T23:36:15.381Z,69.50
2018-05-07T23:38:42.936Z,69.80
2018-05-07T23:41:10.453Z,70.40
2018-05-07T23:43:38.009Z,71.10
2018-05-07T23:46:05.547Z,70.80
2018-05-07T23:48:33.104Z,70.90
2018-05-07T23:51:00.647Z,71.20
2018-05-07T23:53:28.179Z,71.20
2018-05-07T23:55:56.486Z,71.50
2018-05-07T23:58:24.021Z,71.50
